Time;durP1;ratioP1;P1;durP2;ratioP2;P2;SDS_P1;SDS_P2;PMS_P1;PMS_P2;Temp;Humidity;BMP_temperature;BMP_pressure;BME280_temperature;BME280_humidity;BME280_pressure;Samples;Min_cycle;Max_cycle;Signal;HPM_P1;HPM_P2
2023/01/17 00:01:42;;;;;;;2.90;1.33;;;;;;;;;;5011904;28;20045;-68
2023/01/17 00:09:55;;;;;;;2.35;1.58;;;;;;;;;;5013900;28;20084;-68
2023/01/17 00:12:29;;;;;;;1.23;0.93;;;;;;;;;;5010751;28;20044;-68
2023/01/17 00:14:56;;;;;;;1.00;1.00;;;;;;;;;;5010145;28;20065;-67
2023/01/17 00:17:22;;;;;;;4.90;1.40;;;;;;;;;;5013889;28;20046;-68
2023/01/17 01:34:36;;;;;;;4.32;1.02;;;;;;;;;;5009176;28;20048;-68
2023/01/17 01:37:02;;;;;;;4.78;0.60;;;;;;;;;;5015487;28;20095;-68
2023/01/17 01:39:28;;;;;;;2.25;0.65;;;;;;;;;;5011074;28;20038;-67
2023/01/17 01:41:54;;;;;;;3.97;0.60;;;;;;;;;;5008909;28;20064;-68
2023/01/17 01:44:39;;;;;;;1.27;0.40;;;;;;;;;;5003895;28;20121;-68
2023/01/17 01:47:05;;;;;;;3.00;0.60;;;;;;;;;;5009601;28;20088;-68
2023/01/17 01:49:31;;;;;;;2.63;0.60;;;;;;;;;;5005278;28;20260;-67
2023/01/17 01:52:02;;;;;;;1.77;0.50;;;;;;;;;;5029041;28;20037;-68
2023/01/17 01:54:33;;;;;;;1.88;0.63;;;;;;;;;;5024945;28;20092;-67
2023/01/17 01:56:59;;;;;;;;;;;;;;;;;;5010634;28;20038;-68
2023/01/17 01:59:25;;;;;;;1.27;0.70;;;;;;;;;;5010878;28;19971;-68
2023/01/17 02:01:52;;;;;;;3.40;0.70;;;;;;;;;;5008341;28;20069;-68
2023/01/17 02:04:18;;;;;;;2.95;0.80;;;;;;;;;;5007809;28;20548;-68
2023/01/17 02:06:59;;;;;;;4.60;0.65;;;;;;;;;;5010487;28;20034;-68
2023/01/17 02:09:26;;;;;;;4.07;1.00;;;;;;;;;;5005178;28;20037;-68
2023/01/17 02:11:52;;;;;;;2.97;0.80;;;;;;;;;;5018118;28;20045;-68
2023/01/17 02:14:19;;;;;;;1.55;0.70;;;;;;;;;;5002210;28;20108;-68
2023/01/17 02:16:54;;;;;;;4.35;0.70;;;;;;;;;;5009859;28;20034;-69
2023/01/17 02:19:26;;;;;;;3.70;0.80;;;;;;;;;;5010989;28;20395;-69
2023/01/17 02:22:11;;;;;;;3.58;0.73;;;;;;;;;;5012936;28;20514;-69
2023/01/17 02:24:46;;;;;;;3.97;0.70;;;;;;;;;;5016948;28;20072;-68
2023/01/17 02:27:15;;;;;;;0.60;0.52;;;;;;;;;;5010442;28;20391;-68
2023/01/17 02:29:41;;;;;;;2.03;0.50;;;;;;;;;;5013827;28;20469;-69
2023/01/17 02:32:14;;;;;;;1.23;0.40;;;;;;;;;;5010293;28;20070;-68
2023/01/17 02:34:39;;;;;;;3.40;0.50;;;;;;;;;;5007413;28;20034;-69
2023/01/17 02:37:11;;;;;;;2.20;0.52;;;;;;;;;;5011265;28;20447;-68
2023/01/17 02:39:39;;;;;;;3.70;0.90;;;;;;;;;;5007791;28;20053;-69
2023/01/17 02:42:12;;;;;;;3.20;0.90;;;;;;;;;;5011232;28;20120;-69
2023/01/17 02:44:42;;;;;;;2.80;0.80;;;;;;;;;;5007229;28;20040;-69
2023/01/17 02:47:23;;;;;;;1.35;0.68;;;;;;;;;;5008674;28;20033;-69
2023/01/17 02:49:51;;;;;;;3.28;0.68;;;;;;;;;;5010222;28;20046;-69
2023/01/17 02:52:29;;;;;;;2.28;0.70;;;;;;;;;;5036753;22;20049;-63
2023/01/17 02:55:05;;;;;;;2.42;0.85;;;;;;;;;;5032585;28;20049;-64
2023/01/17 02:57:50;;;;;;;4.40;0.60;;;;;;;;;;5031353;28;20033;-63
2023/01/17 03:00:16;;;;;;;1.67;0.65;;;;;;;;;;5026434;28;20150;-63
2023/01/17 03:02:58;;;;;;;1.88;0.95;;;;;;;;;;5030463;28;20037;-63
2023/01/17 03:05:35;;;;;;;9.43;0.90;;;;;;;;;;5031519;28;20124;-63
2023/01/17 03:08:01;;;;;;;1.63;0.63;;;;;;;;;;5034076;28;20025;-63
2023/01/17 03:10:27;;;;;;;3.60;1.00;;;;;;;;;;5033266;28;20038;-63
2023/01/17 03:12:57;;;;;;;3.40;0.60;;;;;;;;;;5033465;28;20495;-63
2023/01/17 03:15:23;;;;;;;2.55;0.55;;;;;;;;;;5032905;28;20033;-64
2023/01/17 03:17:51;;;;;;;3.88;1.00;;;;;;;;;;5034179;28;20037;-65
2023/01/17 03:20:17;;;;;;;6.30;0.80;;;;;;;;;;5033137;28;20117;-64
2023/01/17 03:22:43;;;;;;;7.07;0.93;;;;;;;;;;5034377;28;20033;-64
2023/01/17 03:25:09;;;;;;;2.80;0.80;;;;;;;;;;5032124;28;20375;-63
2023/01/17 03:27:35;;;;;;;4.05;1.13;;;;;;;;;;5033286;28;20051;-64
2023/01/17 03:30:01;;;;;;;2.60;0.70;;;;;;;;;;5033428;28;20473;-64
2023/01/17 03:32:27;;;;;;;4.07;0.70;;;;;;;;;;5033875;28;20124;-63
2023/01/17 03:34:53;;;;;;;4.18;0.80;;;;;;;;;;5031883;28;20046;-63
2023/01/17 03:37:19;;;;;;;4.75;0.80;;;;;;;;;;5030684;28;20132;-64
2023/01/17 03:39:45;;;;;;;0.75;0.50;;;;;;;;;;5031129;28;20075;-64
2023/01/17 03:42:11;;;;;;;2.83;0.70;;;;;;;;;;5033239;28;20426;-64
2023/01/17 03:44:37;;;;;;;3.63;0.65;;;;;;;;;;5032316;28;20071;-64
2023/01/17 03:47:03;;;;;;;3.42;1.10;;;;;;;;;;5031953;28;20045;-64
2023/01/17 03:49:30;;;;;;;3.40;0.70;;;;;;;;;;5000586;28;20037;-64
2023/01/17 03:51:56;;;;;;;4.53;0.80;;;;;;;;;;5032182;28;20076;-64
2023/01/17 03:54:22;;;;;;;5.60;1.05;;;;;;;;;;5031757;28;20257;-64
2023/01/17 03:56:48;;;;;;;2.05;0.88;;;;;;;;;;5031646;28;20086;-64
2023/01/17 03:59:14;;;;;;;3.45;0.65;;;;;;;;;;5032697;28;20033;-63
2023/01/17 04:01:40;;;;;;;3.35;0.80;;;;;;;;;;5033385;28;20305;-64
2023/01/17 04:04:06;;;;;;;4.43;0.75;;;;;;;;;;5032847;28;20030;-64
2023/01/17 04:06:32;;;;;;;4.90;0.80;;;;;;;;;;5031729;28;20072;-64
2023/01/17 04:08:58;;;;;;;5.57;0.88;;;;;;;;;;5031520;28;20133;-63
2023/01/17 04:11:23;;;;;;;7.13;0.77;;;;;;;;;;5032996;28;20049;-64
2023/01/17 04:13:49;;;;;;;3.83;1.00;;;;;;;;;;5033137;28;20040;-64
2023/01/17 04:16:16;;;;;;;2.38;0.63;;;;;;;;;;5031776;28;20069;-63
2023/01/17 04:18:43;;;;;;;5.47;0.77;;;;;;;;;;5033542;28;20037;-63
2023/01/17 04:21:09;;;;;;;4.90;0.63;;;;;;;;;;5032659;28;20518;-64
2023/01/17 04:23:35;;;;;;;5.13;0.90;;;;;;;;;;5032777;28;20040;-64
2023/01/17 04:26:02;;;;;;;5.95;0.73;;;;;;;;;;5032425;28;20403;-64
2023/01/17 04:28:28;;;;;;;4.03;0.90;;;;;;;;;;5031932;28;20526;-63
2023/01/17 04:30:58;;;;;;;3.55;0.70;;;;;;;;;;5031729;28;20483;-64
2023/01/17 04:33:24;;;;;;;1.33;0.55;;;;;;;;;;5032954;28;20052;-63
2023/01/17 04:35:52;;;;;;;3.65;0.85;;;;;;;;;;5031195;28;20037;-64
2023/01/17 04:38:18;;;;;;;3.65;0.90;;;;;;;;;;5032462;28;20040;-64
2023/01/17 04:40:44;;;;;;;3.30;0.70;;;;;;;;;;5032211;28;20136;-64
2023/01/17 04:43:10;;;;;;;4.07;1.00;;;;;;;;;;5032487;28;20480;-63
2023/01/17 04:45:37;;;;;;;7.00;1.08;;;;;;;;;;5031751;28;20072;-63
2023/01/17 04:48:04;;;;;;;4.57;0.93;;;;;;;;;;5023983;28;20053;-63
2023/01/17 04:50:31;;;;;;;3.42;0.80;;;;;;;;;;5031758;28;20128;-64
2023/01/17 04:52:57;;;;;;;3.22;0.98;;;;;;;;;;5028613;28;20073;-64
2023/01/17 04:55:23;;;;;;;5.07;1.13;;;;;;;;;;5025942;28;20529;-64
2023/01/17 04:57:49;;;;;;;4.38;0.80;;;;;;;;;;5031817;28;20077;-63
2023/01/17 05:00:15;;;;;;;4.95;0.93;;;;;;;;;;5029130;28;20041;-64
2023/01/17 05:02:41;;;;;;;3.53;0.90;;;;;;;;;;5030145;28;20041;-64
2023/01/17 05:05:08;;;;;;;5.72;1.10;;;;;;;;;;5023368;28;20048;-63
2023/01/17 05:07:34;;;;;;;2.22;0.80;;;;;;;;;;5030608;28;20041;-63
2023/01/17 05:10:00;;;;;;;4.60;0.90;;;;;;;;;;5012847;28;20041;-63
2023/01/17 05:12:26;;;;;;;1.35;1.00;;;;;;;;;;5040978;28;20402;-64
2023/01/17 05:14:52;;;;;;;2.00;0.90;;;;;;;;;;5029273;28;20037;-64
2023/01/17 05:17:18;;;;;;;4.43;0.90;;;;;;;;;;5030178;28;20037;-64
2023/01/17 05:19:45;;;;;;;4.38;1.23;;;;;;;;;;5024478;28;20048;-64
2023/01/17 05:22:15;;;;;;;4.30;1.15;;;;;;;;;;5025024;28;20044;-64
2023/01/17 05:24:45;;;;;;;6.63;0.95;;;;;;;;;;5029234;28;20041;-64
2023/01/17 05:27:11;;;;;;;6.45;1.02;;;;;;;;;;5029465;28;20513;-64
2023/01/17 05:29:38;;;;;;;4.75;0.95;;;;;;;;;;5031722;28;20045;-64
2023/01/17 05:32:04;;;;;;;2.88;0.70;;;;;;;;;;5032017;28;20077;-64
2023/01/17 05:34:30;;;;;;;4.72;1.00;;;;;;;;;;5030523;28;20509;-64
2023/01/17 05:36:56;;;;;;;2.55;1.10;;;;;;;;;;5030887;28;20069;-64
2023/01/17 05:39:22;;;;;;;7.15;1.08;;;;;;;;;;5031130;28;20068;-64
2023/01/17 05:41:48;;;;;;;3.80;0.82;;;;;;;;;;5036269;28;20045;-64
2023/01/17 05:44:14;;;;;;;6.15;1.15;;;;;;;;;;5030427;28;20037;-64
2023/01/17 05:46:41;;;;;;;3.28;1.05;;;;;;;;;;5031443;28;20056;-64
2023/01/17 05:49:07;;;;;;;3.60;0.80;;;;;;;;;;5014210;28;20091;-64
2023/01/17 05:51:36;;;;;;;6.72;1.27;;;;;;;;;;5031792;28;20052;-64
2023/01/17 05:54:02;;;;;;;3.95;0.85;;;;;;;;;;5030041;28;20507;-64
2023/01/17 05:56:28;;;;;;;6.88;1.10;;;;;;;;;;5014616;28;20395;-64
2023/01/17 05:58:54;;;;;;;2.22;1.10;;;;;;;;;;5030590;28;20095;-64
2023/01/17 06:01:20;;;;;;;5.93;0.90;;;;;;;;;;5030650;28;20080;-64
2023/01/17 06:03:46;;;;;;;5.22;1.20;;;;;;;;;;5031397;28;20126;-64
2023/01/17 06:06:12;;;;;;;4.50;0.90;;;;;;;;;;5029131;28;20041;-64
2023/01/17 06:08:38;;;;;;;4.05;0.88;;;;;;;;;;5031731;28;20344;-64
2023/01/17 06:11:04;;;;;;;4.57;0.82;;;;;;;;;;5029474;28;20041;-64
2023/01/17 06:13:31;;;;;;;4.90;0.93;;;;;;;;;;5030250;28;20034;-64
2023/01/17 06:16:01;;;;;;;5.57;0.98;;;;;;;;;;5030582;28;20132;-64
2023/01/17 06:18:27;;;;;;;3.00;0.80;;;;;;;;;;5026827;28;20112;-64
2023/01/17 06:20:54;;;;;;;2.28;1.05;;;;;;;;;;5028886;28;20683;-64
2023/01/17 06:23:20;;;;;;;7.28;0.93;;;;;;;;;;5030660;28;20415;-64
2023/01/17 06:25:47;;;;;;;9.57;1.00;;;;;;;;;;5031391;28;20456;-64
2023/01/17 06:28:14;;;;;;;3.30;0.93;;;;;;;;;;5034577;28;20041;-64
2023/01/17 06:30:41;;;;;;;4.30;0.82;;;;;;;;;;5035462;28;20053;-64
2023/01/17 06:33:07;;;;;;;4.80;0.90;;;;;;;;;;5035324;28;20037;-65
2023/01/17 06:35:33;;;;;;;2.72;0.88;;;;;;;;;;5028408;28;20506;-64
2023/01/17 06:37:59;;;;;;;8.30;1.23;;;;;;;;;;5033266;28;20052;-64
2023/01/17 06:40:28;;;;;;;3.63;0.60;;;;;;;;;;5035287;28;20125;-64
2023/01/17 06:42:54;;;;;;;2.47;0.90;;;;;;;;;;5034486;28;20042;-64
2023/01/17 06:45:20;;;;;;;5.47;0.80;;;;;;;;;;5015686;28;20051;-64
2023/01/17 06:47:46;;;;;;;6.25;1.33;;;;;;;;;;5031494;28;20359;-64
2023/01/17 06:50:13;;;;;;;5.85;0.90;;;;;;;;;;5032624;28;20465;-63
2023/01/17 06:52:42;;;;;;;5.13;1.00;;;;;;;;;;5033592;28;20044;-63
2023/01/17 06:55:08;;;;;;;2.67;0.73;;;;;;;;;;5031022;28;20060;-63
2023/01/17 06:57:34;;;;;;;5.53;1.20;;;;;;;;;;5033631;28;20108;-63
2023/01/17 07:00:00;;;;;;;4.90;1.00;;;;;;;;;;5034922;28;20187;-64
2023/01/17 07:02:26;;;;;;;4.97;0.93;;;;;;;;;;5028335;28;20673;-63
2023/01/17 07:04:52;;;;;;;5.35;1.20;;;;;;;;;;5030155;28;20037;-63
2023/01/17 07:07:18;;;;;;;5.03;1.13;;;;;;;;;;5027716;28;20037;-63
2023/01/17 07:09:45;;;;;;;10.45;1.00;;;;;;;;;;5027899;28;20128;-63
2023/01/17 07:12:10;;;;;;;4.80;0.82;;;;;;;;;;5033579;28;20034;-64
2023/01/17 07:14:36;;;;;;;1.48;0.88;;;;;;;;;;5033697;28;20548;-63
2023/01/17 07:17:04;;;;;;;4.30;1.02;;;;;;;;;;5031925;28;20124;-64
2023/01/17 07:19:30;;;;;;;4.40;1.17;;;;;;;;;;5032672;28;20514;-63
2023/01/17 07:21:56;;;;;;;3.22;0.90;;;;;;;;;;5035503;28;20073;-63
2023/01/17 07:24:22;;;;;;;6.82;1.10;;;;;;;;;;5032766;28;20033;-63
2023/01/17 07:26:48;;;;;;;3.63;0.93;;;;;;;;;;5028028;28;20522;-63
2023/01/17 07:29:14;;;;;;;5.45;0.93;;;;;;;;;;5029542;28;20041;-63
2023/01/17 07:31:40;;;;;;;2.05;1.00;;;;;;;;;;5026819;28;20449;-63
2023/01/17 07:34:06;;;;;;;5.50;1.10;;;;;;;;;;5023558;28;20099;-62
2023/01/17 07:36:32;;;;;;;6.50;1.23;;;;;;;;;;5025119;28;20460;-63
2023/01/17 07:38:58;;;;;;;3.20;1.20;;;;;;;;;;5033020;28;20037;-63
2023/01/17 07:41:25;;;;;;;4.68;1.27;;;;;;;;;;5028247;28;20048;-63
2023/01/17 07:43:51;;;;;;;4.03;1.00;;;;;;;;;;5031210;28;20072;-63
2023/01/17 07:46:17;;;;;;;3.67;1.00;;;;;;;;;;5033603;28;20034;-63
2023/01/17 07:48:43;;;;;;;3.70;1.10;;;;;;;;;;5031623;28;20533;-63
2023/01/17 07:51:09;;;;;;;6.30;1.02;;;;;;;;;;5033396;28;20068;-63
2023/01/17 07:53:35;;;;;;;6.57;1.55;;;;;;;;;;5034188;28;20072;-63
2023/01/17 07:56:06;;;;;;;5.65;1.05;;;;;;;;;;5032602;28;20041;-63
2023/01/17 07:58:32;;;;;;;4.35;1.40;;;;;;;;;;5032621;28;20041;-63
2023/01/17 08:01:05;;;;;;;3.63;1.52;;;;;;;;;;5033184;28;20102;-63
2023/01/17 08:03:34;;;;;;;2.70;0.80;;;;;;;;;;5032838;28;20045;-63
2023/01/17 08:06:00;;;;;;;6.15;1.30;;;;;;;;;;5032937;28;20056;-63
2023/01/17 08:08:27;;;;;;;6.53;1.27;;;;;;;;;;5032242;28;20124;-62
2023/01/17 08:10:53;;;;;;;5.60;1.48;;;;;;;;;;5033302;28;20038;-62
2023/01/17 08:13:20;;;;;;;3.35;0.93;;;;;;;;;;5033172;28;20060;-62
2023/01/17 08:15:50;;;;;;;4.07;1.00;;;;;;;;;;5032554;28;20038;-63
2023/01/17 08:18:17;;;;;;;5.03;0.93;;;;;;;;;;5013754;28;20095;-62
2023/01/17 08:20:45;;;;;;;2.70;0.90;;;;;;;;;;5029121;28;20049;-62
2023/01/17 08:23:12;;;;;;;5.35;1.00;;;;;;;;;;5031599;28;20487;-63
2023/01/17 08:25:38;;;;;;;3.25;1.08;;;;;;;;;;5032808;28;20132;-62
2023/01/17 08:28:04;;;;;;;8.30;1.83;;;;;;;;;;5032225;28;20045;-62
2023/01/17 08:30:30;;;;;;;6.78;1.02;;;;;;;;;;5033134;28;20096;-63
2023/01/17 08:32:56;;;;;;;4.38;1.00;;;;;;;;;;5030557;28;20034;-63
2023/01/17 08:35:22;;;;;;;3.47;1.20;;;;;;;;;;5029253;28;20041;-63
2023/01/17 08:37:48;;;;;;;5.03;1.25;;;;;;;;;;5030473;28;20044;-63
2023/01/17 08:40:15;;;;;;;8.00;1.25;;;;;;;;;;5032044;28;20507;-63
2023/01/17 08:42:43;;;;;;;4.55;1.30;;;;;;;;;;5031954;28;20053;-63
2023/01/17 08:45:09;;;;;;;3.65;1.30;;;;;;;;;;5030394;28;20053;-63
2023/01/17 08:47:35;;;;;;;2.22;1.00;;;;;;;;;;5031017;28;20107;-63
2023/01/17 08:50:01;;;;;;;4.18;1.25;;;;;;;;;;5027358;28;20042;-63
2023/01/17 08:52:27;;;;;;;5.93;1.50;;;;;;;;;;5055052;22;20520;-66
2023/01/17 08:54:53;;;;;;;4.60;1.15;;;;;;;;;;5051154;28;20127;-66
2023/01/17 08:57:20;;;;;;;6.43;1.52;;;;;;;;;;5049979;28;20523;-66
2023/01/17 08:59:46;;;;;;;4.55;1.20;;;;;;;;;;5051472;28;20040;-66
2023/01/17 09:02:15;;;;;;;3.65;1.35;;;;;;;;;;5043619;28;20429;-66
2023/01/17 09:04:45;;;;;;;4.95;1.27;;;;;;;;;;5052484;28;20435;-66
2023/01/17 09:07:11;;;;;;;5.88;1.40;;;;;;;;;;5051070;28;20041;-67
2023/01/17 09:09:37;;;;;;;3.30;1.70;;;;;;;;;;5051286;28;20041;-67
2023/01/17 09:12:03;;;;;;;5.95;1.98;;;;;;;;;;5051612;28;20037;-67
2023/01/17 09:14:29;;;;;;;5.55;1.83;;;;;;;;;;5051194;28;20033;-68
2023/01/17 09:16:55;;;;;;;6.32;2.60;;;;;;;;;;5050547;28;20394;-67
2023/01/17 09:19:22;;;;;;;3.30;1.92;;;;;;;;;;5052489;28;20037;-67
2023/01/17 09:21:47;;;;;;;5.50;2.10;;;;;;;;;;5051897;28;20051;-67
2023/01/17 09:24:14;;;;;;;5.15;2.40;;;;;;;;;;5048910;28;20041;-67
2023/01/17 09:26:40;;;;;;;5.95;2.28;;;;;;;;;;5050372;28;20269;-67
2023/01/17 09:29:06;;;;;;;5.28;2.20;;;;;;;;;;5050325;28;20055;-67
2023/01/17 09:31:32;;;;;;;8.88;2.35;;;;;;;;;;5051229;28;20115;-67
2023/01/17 09:33:58;;;;;;;4.60;2.35;;;;;;;;;;5051745;28;20119;-67
2023/01/17 09:36:27;;;;;;;4.80;2.10;;;;;;;;;;5050065;28;20033;-67
2023/01/17 09:38:57;;;;;;;5.63;2.13;;;;;;;;;;5051234;28;20119;-67
2023/01/17 09:41:27;;;;;;;5.03;2.17;;;;;;;;;;5050628;28;20124;-67
2023/01/17 09:43:56;;;;;;;3.80;2.23;;;;;;;;;;5048284;28;20044;-67
2023/01/17 09:46:25;;;;;;;10.75;2.70;;;;;;;;;;5050942;28;20278;-67
2023/01/17 09:48:55;;;;;;;9.38;2.28;;;;;;;;;;5050906;28;20048;-67
2023/01/17 09:51:25;;;;;;;6.05;2.28;;;;;;;;;;5033467;28;20568;-67
2023/01/17 09:53:52;;;;;;;4.10;2.08;;;;;;;;;;5048458;28;20045;-67
2023/01/17 09:56:20;;;;;;;8.23;2.33;;;;;;;;;;5052091;28;20041;-67
2023/01/17 09:59:06;;;;;;;4.85;2.03;;;;;;;;;;5051162;28;20506;-67
2023/01/17 10:01:42;;;;;;;3.40;2.00;;;;;;;;;;5048714;28;20084;-67
2023/01/17 10:04:15;;;;;;;5.85;2.35;;;;;;;;;;5044599;28;20442;-67
2023/01/17 10:06:59;;;;;;;3.40;1.70;;;;;;;;;;5050245;28;20049;-66
2023/01/17 10:09:44;;;;;;;6.38;1.95;;;;;;;;;;5025841;28;20043;-67
2023/01/17 10:12:30;;;;;;;3.78;2.08;;;;;;;;;;5049087;28;20077;-66
2023/01/17 10:14:56;;;;;;;5.38;2.00;;;;;;;;;;5048390;28;20446;-67
2023/01/17 10:17:41;;;;;;;5.68;2.20;;;;;;;;;;5049521;28;20052;-66
2023/01/17 10:20:24;;;;;;;7.35;2.08;;;;;;;;;;5042391;28;20457;-66
2023/01/17 10:22:53;;;;;;;11.05;2.28;;;;;;;;;;5046677;28;20123;-67
2023/01/17 10:25:19;;;;;;;4.70;2.15;;;;;;;;;;5051175;28;20080;-66
2023/01/17 10:27:48;;;;;;;4.25;1.73;;;;;;;;;;5051032;28;20068;-67
2023/01/17 10:30:22;;;;;;;7.07;1.85;;;;;;;;;;5051029;28;20087;-67
2023/01/17 10:32:49;;;;;;;3.85;2.80;;;;;;;;;;5048512;28;20036;-67
2023/01/17 10:35:23;;;;;;;4.88;2.03;;;;;;;;;;5050970;28;20548;-67
2023/01/17 10:37:55;;;;;;;5.68;2.10;;;;;;;;;;5047681;28;20127;-68
2023/01/17 10:40:40;;;;;;;6.18;1.80;;;;;;;;;;5031347;28;20498;-67
2023/01/17 10:43:12;;;;;;;4.07;1.92;;;;;;;;;;5013490;28;20091;-67
2023/01/17 10:45:48;;;;;;;5.85;2.00;;;;;;;;;;5031350;28;20167;-67
2023/01/17 10:48:46;;;;;;;5.88;1.60;;;;;;;;;;5048465;28;20090;-67
2023/01/17 10:51:15;;;;;;;4.97;1.85;;;;;;;;;;4990979;28;20071;-67
2023/01/17 10:54:00;;;;;;;4.05;1.50;;;;;;;;;;5050575;28;20045;-67
2023/01/17 10:56:27;;;;;;;7.32;2.00;;;;;;;;;;5051586;28;20136;-67
2023/01/17 10:59:15;;;;;;;6.07;2.25;;;;;;;;;;5050812;28;20132;-67
2023/01/17 11:01:41;;;;;;;6.63;1.90;;;;;;;;;;5050171;28;20456;-67
2023/01/17 11:04:15;;;;;;;8.18;2.25;;;;;;;;;;5050525;28;20367;-67
2023/01/17 11:06:46;;;;;;;6.45;2.08;;;;;;;;;;5049477;28;20037;-67
2023/01/17 11:09:12;;;;;;;4.47;1.90;;;;;;;;;;5050974;28;20064;-67
2023/01/17 11:11:44;;;;;;;5.65;2.15;;;;;;;;;;5050670;28;20110;-67
2023/01/17 11:14:22;;;;;;;5.63;2.25;;;;;;;;;;5052969;28;20079;-67
2023/01/17 11:16:59;;;;;;;5.60;2.10;;;;;;;;;;5053678;28;20045;-68
2023/01/17 11:19:29;;;;;;;5.80;2.03;;;;;;;;;;5046460;28;20037;-67
2023/01/17 11:22:00;;;;;;;5.60;2.00;;;;;;;;;;5048289;28;20076;-67
2023/01/17 11:24:40;;;;;;;5.47;2.28;;;;;;;;;;5046817;28;20510;-67
2023/01/17 11:27:07;;;;;;;4.40;2.10;;;;;;;;;;5051518;28;20037;-68
2023/01/17 11:29:37;;;;;;;8.55;2.15;;;;;;;;;;5050007;28;20102;-68
2023/01/17 11:32:21;;;;;;;6.97;1.92;;;;;;;;;;5052565;28;20078;-68
2023/01/17 11:35:06;;;;;;;6.97;1.83;;;;;;;;;;5054424;28;20082;-68
2023/01/17 11:37:32;;;;;;;2.83;1.45;;;;;;;;;;5044100;28;20105;-68
2023/01/17 11:40:08;;;;;;;3.28;2.00;;;;;;;;;;5046105;28;20052;-67
2023/01/17 11:42:36;;;;;;;6.97;2.28;;;;;;;;;;5049833;28;20055;-67
2023/01/17 11:45:20;;;;;;;2.80;1.67;;;;;;;;;;5036385;28;20116;-67
2023/01/17 11:47:46;;;;;;;7.03;1.88;;;;;;;;;;5050794;28;20064;-67
2023/01/17 11:50:23;;;;;;;2.78;1.70;;;;;;;;;;5050778;28;20079;-68
2023/01/17 11:52:49;;;;;;;5.55;1.75;;;;;;;;;;5053187;28;20505;-67
2023/01/17 11:55:16;;;;;;;6.35;1.88;;;;;;;;;;5051639;28;20068;-67
2023/01/17 11:57:42;;;;;;;7.50;1.98;;;;;;;;;;5049516;28;20032;-67
2023/01/17 12:00:08;;;;;;;4.47;2.17;;;;;;;;;;5048601;28;20073;-68
2023/01/17 12:02:37;;;;;;;4.97;1.90;;;;;;;;;;5052568;28;20053;-67
2023/01/17 12:05:18;;;;;;;6.25;2.05;;;;;;;;;;5040418;28;20483;-67
2023/01/17 12:07:44;;;;;;;4.80;1.90;;;;;;;;;;5053740;28;20041;-67
2023/01/17 12:10:22;;;;;;;5.35;1.75;;;;;;;;;;5052771;28;20249;-67
2023/01/17 12:15:56;;;;;;;4.03;1.80;;;;;;;;;;5050345;28;20066;-67
2023/01/17 12:18:23;;;;;;;3.92;1.65;;;;;;;;;;5049265;28;20072;-67
2023/01/17 12:20:52;;;;;;;4.38;1.90;;;;;;;;;;5046816;28;20490;-68
2023/01/17 12:23:39;;;;;;;3.72;1.73;;;;;;;;;;5050128;28;20422;-68
2023/01/17 12:26:05;;;;;;;7.55;1.95;;;;;;;;;;5052082;28;20099;-67
2023/01/17 12:28:57;;;;;;;4.75;2.13;;;;;;;;;;5050185;28;20049;-68
2023/01/17 12:31:33;;;;;;;7.18;1.98;;;;;;;;;;5017693;28;20052;-68
2023/01/17 12:34:18;;;;;;;4.15;1.83;;;;;;;;;;5051610;28;20119;-68
2023/01/17 12:36:53;;;;;;;8.75;2.15;;;;;;;;;;5053066;28;20438;-68
2023/01/17 12:39:24;;;;;;;4.75;2.00;;;;;;;;;;5052928;28;20044;-68
2023/01/17 12:41:55;;;;;;;4.63;1.75;;;;;;;;;;5051284;28;20063;-68
2023/01/17 12:44:27;;;;;;;3.55;1.75;;;;;;;;;;5050872;28;20044;-68
2023/01/17 12:46:59;;;;;;;6.32;1.60;;;;;;;;;;5053092;28;20075;-68
2023/01/17 12:49:43;;;;;;;5.20;1.88;;;;;;;;;;5052156;28;20036;-68
2023/01/17 12:52:17;;;;;;;4.82;1.98;;;;;;;;;;5050554;28;20045;-68
2023/01/17 12:54:45;;;;;;;5.10;1.48;;;;;;;;;;5052156;28;20544;-67
2023/01/17 12:57:15;;;;;;;5.13;1.75;;;;;;;;;;5034306;28;20537;-68
2023/01/17 12:59:45;;;;;;;3.08;1.40;;;;;;;;;;5048003;28;20041;-67
2023/01/17 13:02:26;;;;;;;4.70;1.77;;;;;;;;;;5050841;28;20045;-67
2023/01/17 13:04:58;;;;;;;7.35;1.52;;;;;;;;;;5052248;28;20472;-67
2023/01/17 13:07:28;;;;;;;3.17;1.67;;;;;;;;;;5050348;28;20044;-67
2023/01/17 13:10:08;;;;;;;2.60;1.33;;;;;;;;;;5051085;28;20045;-67
2023/01/17 13:12:34;;;;;;;4.72;1.38;;;;;;;;;;5048935;28;20044;-68
2023/01/17 13:15:02;;;;;;;4.57;1.58;;;;;;;;;;5051435;28;20037;-67
2023/01/17 13:17:47;;;;;;;5.72;1.55;;;;;;;;;;5050422;28;20120;-67
2023/01/17 13:20:30;;;;;;;3.75;1.20;;;;;;;;;;5048328;28;20049;-68
2023/01/17 13:23:00;;;;;;;6.03;1.70;;;;;;;;;;5050105;28;20045;-67
2023/01/17 13:25:32;;;;;;;3.58;1.35;;;;;;;;;;5049847;28;20525;-67
2023/01/17 13:28:04;;;;;;;2.25;1.10;;;;;;;;;;5048609;28;20040;-67
2023/01/17 13:30:42;;;;;;;4.03;1.40;;;;;;;;;;5048730;28;20048;-67
2023/01/17 13:33:26;;;;;;;3.50;1.20;;;;;;;;;;5048830;28;20078;-68
2023/01/17 13:36:11;;;;;;;6.80;1.63;;;;;;;;;;5047382;28;20045;-67
2023/01/17 13:38:37;;;;;;;4.20;1.38;;;;;;;;;;5049002;28;20483;-67
2023/01/17 13:41:12;;;;;;;4.95;1.33;;;;;;;;;;5047267;28;20055;-67
2023/01/17 13:43:40;;;;;;;3.85;1.42;;;;;;;;;;5047635;28;20426;-67
2023/01/17 13:46:06;;;;;;;4.18;1.35;;;;;;;;;;5049786;28;20045;-67
2023/01/17 13:48:37;;;;;;;4.00;1.40;;;;;;;;;;5051463;28;20544;-67
2023/01/17 13:51:04;;;;;;;7.15;1.50;;;;;;;;;;5049910;28;20052;-67
2023/01/17 13:53:33;;;;;;;3.50;1.70;;;;;;;;;;5051053;28;20036;-67
2023/01/17 13:56:02;;;;;;;4.65;1.75;;;;;;;;;;5051858;28;20040;-67
2023/01/17 13:58:53;;;;;;;2.47;1.30;;;;;;;;;;5051155;28;20123;-67
2023/01/17 14:01:22;;;;;;;5.15;1.65;;;;;;;;;;5037328;28;20112;-67
2023/01/17 14:03:51;;;;;;;5.38;1.45;;;;;;;;;;5044749;28;20561;-67
2023/01/17 14:06:32;;;;;;;8.75;1.65;;;;;;;;;;5049226;28;20049;-66
2023/01/17 14:09:01;;;;;;;;;;;;;;;;;;5050581;28;20045;-66
2023/01/17 14:11:31;;;;;;;4.63;1.67;;;;;;;;;;5051015;28;19920;-66
2023/01/17 14:13:58;;;;;;;7.07;1.70;;;;;;;;;;5049920;28;20059;-66
2023/01/17 14:16:32;;;;;;;3.47;1.30;;;;;;;;;;5048889;28;20033;-66
2023/01/17 14:18:58;;;;;;;3.33;1.35;;;;;;;;;;5048801;28;20037;-67
2023/01/17 14:21:26;;;;;;;4.90;1.67;;;;;;;;;;5049408;28;20041;-66
2023/01/17 14:23:52;;;;;;;6.70;1.40;;;;;;;;;;5049081;28;20040;-67
2023/01/17 14:26:26;;;;;;;2.83;1.20;;;;;;;;;;5048189;28;20049;-67
2023/01/17 14:28:52;;;;;;;5.80;1.30;;;;;;;;;;5047247;28;20098;-67
2023/01/17 14:31:21;;;;;;;5.28;1.42;;;;;;;;;;5042055;28;20048;-67
2023/01/17 14:33:47;;;;;;;2.45;1.20;;;;;;;;;;5045312;28;20040;-67
2023/01/17 14:36:20;;;;;;;4.82;1.20;;;;;;;;;;5049949;28;20079;-67
2023/01/17 14:38:46;;;;;;;3.53;1.30;;;;;;;;;;5047669;28;20075;-67
2023/01/17 14:41:14;;;;;;;4.40;1.23;;;;;;;;;;5042764;28;20041;-67
2023/01/17 14:43:42;;;;;;;2.15;1.23;;;;;;;;;;5050584;28;20258;-67
2023/01/17 14:46:16;;;;;;;3.45;2.17;;;;;;;;;;5039370;28;20658;-67
2023/01/17 14:48:42;;;;;;;2.30;1.20;;;;;;;;;;5048702;28;20033;-67
2023/01/17 14:51:12;;;;;;;3.53;1.23;;;;;;;;;;5050827;28;20037;-67
2023/01/17 14:53:39;;;;;;;3.50;1.33;;;;;;;;;;5060915;22;20593;-63
2023/01/17 14:56:17;;;;;;;3.22;1.40;;;;;;;;;;5052918;28;20037;-63
2023/01/17 14:58:45;;;;;;;7.68;1.40;;;;;;;;;;5051380;28;20484;-63
2023/01/17 15:01:13;;;;;;;3.08;1.60;;;;;;;;;;5051407;28;20045;-63
2023/01/17 15:03:48;;;;;;;9.35;5.28;;;;;;;;;;5052256;28;20041;-63
2023/01/17 15:06:19;;;;;;;8.20;2.25;;;;;;;;;;5050397;28;20151;-63
2023/01/17 15:08:45;;;;;;;4.38;1.52;;;;;;;;;;5050781;28;20120;-63
2023/01/17 15:11:32;;;;;;;19.17;17.17;;;;;;;;;;5051797;28;20048;-63
2023/01/17 15:14:00;;;;;;;9.38;6.35;;;;;;;;;;5050169;28;20049;-63
2023/01/17 15:16:27;;;;;;;2.55;2.03;;;;;;;;;;5049889;28;20040;-63
2023/01/17 15:18:54;;;;;;;2.67;1.05;;;;;;;;;;5051054;28;20052;-63
2023/01/17 15:21:22;;;;;;;3.83;3.42;;;;;;;;;;5045736;28;20041;-63
2023/01/17 15:23:51;;;;;;;3.40;1.40;;;;;;;;;;5045265;28;20049;-64
2023/01/17 15:26:18;;;;;;;3.95;2.85;;;;;;;;;;5049842;28;20043;-63
2023/01/17 15:28:44;;;;;;;4.15;2.20;;;;;;;;;;5040758;28;20041;-63
2023/01/17 15:31:13;;;;;;;4.28;1.45;;;;;;;;;;5050561;28;20047;-63
2023/01/17 15:33:40;;;;;;;4.68;2.22;;;;;;;;;;5048306;28;20041;-63
2023/01/17 15:36:07;;;;;;;8.48;7.22;;;;;;;;;;5050445;28;20037;-63
2023/01/17 15:38:33;;;;;;;4.10;1.52;;;;;;;;;;5051075;28;20037;-63
2023/01/17 15:41:15;;;;;;;5.13;3.55;;;;;;;;;;5051922;28;20040;-63
2023/01/17 15:43:40;;;;;;;;;;;;;;;;;;5049032;28;20498;-63
2023/01/17 15:46:19;;;;;;;3.45;1.50;;;;;;;;;;5053335;28;19978;-63
2023/01/17 15:48:46;;;;;;;7.20;5.18;;;;;;;;;;5052749;28;20048;-62
2023/01/17 15:51:12;;;;;;;4.07;1.40;;;;;;;;;;5052160;28;20037;-63
2023/01/17 15:53:42;;;;;;;3.17;2.35;;;;;;;;;;5049232;28;20033;-63
2023/01/17 15:56:22;;;;;;;5.65;1.90;;;;;;;;;;5051202;28;20064;-63
2023/01/17 15:58:49;;;;;;;6.50;2.20;;;;;;;;;;5052688;28;20082;-63
2023/01/17 16:01:16;;;;;;;3.95;1.73;;;;;;;;;;5054076;28;20117;-62
2023/01/17 16:03:55;;;;;;;4.25;2.08;;;;;;;;;;5040796;28;20103;-63
2023/01/17 16:06:29;;;;;;;6.15;2.42;;;;;;;;;;5048785;28;20060;-63
2023/01/17 16:08:55;;;;;;;5.22;1.90;;;;;;;;;;5049573;28;20044;-63
2023/01/17 16:11:21;;;;;;;4.32;1.77;;;;;;;;;;5051567;28;20047;-63
2023/01/17 16:13:48;;;;;;;5.45;1.92;;;;;;;;;;5051065;28;20521;-63
2023/01/17 16:16:18;;;;;;;4.78;2.25;;;;;;;;;;5050122;28;20041;-63
2023/01/17 16:18:45;;;;;;;6.43;2.88;;;;;;;;;;5046829;28;20037;-63
2023/01/17 16:21:17;;;;;;;5.32;2.20;;;;;;;;;;5050248;28;20063;-63